createdAt,value
2023-01-29T00:00:01.524Z,0
2023-01-29T00:05:13.127Z,0
2023-01-29T00:10:01.426Z,0
2023-01-29T00:15:01.478Z,0
2023-01-29T00:20:05.121Z,0
2023-01-29T00:25:01.342Z,0
2023-01-29T00:30:01.358Z,0
2023-01-29T00:35:01.369Z,0
2023-01-29T00:40:01.367Z,0
2023-01-29T00:45:01.400Z,0
2023-01-29T00:50:01.390Z,0
2023-01-29T00:55:01.486Z,0
2023-01-29T01:00:01.598Z,0
2023-01-29T01:05:01.500Z,0
2023-01-29T01:10:01.568Z,0
2023-01-29T01:15:01.444Z,0
2023-01-29T01:20:04.140Z,0
2023-01-29T01:25:01.434Z,0
2023-01-29T01:30:01.463Z,0
2023-01-29T01:35:01.462Z,0
2023-01-29T01:40:01.441Z,0
2023-01-29T01:45:01.484Z,0
2023-01-29T01:50:01.511Z,0
2023-01-29T01:55:01.455Z,0
2023-01-29T02:00:01.445Z,0
2023-01-29T02:05:01.445Z,0
2023-01-29T02:10:01.472Z,0
2023-01-29T02:15:01.483Z,0
2023-01-29T02:20:04.450Z,0
2023-01-29T02:25:01.741Z,0
2023-01-29T02:30:01.674Z,0
2023-01-29T02:35:01.644Z,0
2023-01-29T02:40:01.649Z,0
2023-01-29T02:45:01.703Z,0
2023-01-29T02:50:01.490Z,0
2023-01-29T02:55:01.512Z,0
2023-01-29T03:00:01.538Z,0
2023-01-29T03:05:01.495Z,0
2023-01-29T03:10:01.575Z,0
2023-01-29T03:15:01.486Z,0
2023-01-29T03:20:04.835Z,0
2023-01-29T03:25:01.584Z,0
2023-01-29T03:30:01.575Z,0
2023-01-29T03:35:01.576Z,0
2023-01-29T03:40:01.560Z,0
2023-01-29T03:45:01.503Z,0
2023-01-29T03:50:02.121Z,0
2023-01-29T03:55:01.560Z,0
2023-01-29T04:00:01.577Z,0
2023-01-29T04:05:01.662Z,0
2023-01-29T04:10:01.561Z,0
2023-01-29T04:15:01.543Z,0
2023-01-29T04:20:01.590Z,0
2023-01-29T04:25:01.633Z,0
2023-01-29T04:30:01.588Z,0
2023-01-29T04:35:01.645Z,0
2023-01-29T04:40:01.762Z,0
2023-01-29T04:45:01.677Z,0
2023-01-29T04:50:02.287Z,0
2023-01-29T04:55:01.753Z,0
2023-01-29T05:00:01.780Z,0
2023-01-29T05:05:01.791Z,0
2023-01-29T05:10:01.800Z,0
2023-01-29T05:15:01.638Z,0
2023-01-29T05:20:01.608Z,0
2023-01-29T05:25:01.655Z,0
2023-01-29T05:30:01.664Z,0
2023-01-29T05:35:01.596Z,0
2023-01-29T05:40:01.657Z,0
2023-01-29T05:45:01.694Z,0
2023-01-29T05:50:02.238Z,0
2023-01-29T05:55:01.613Z,0
2023-01-29T06:00:01.689Z,0
2023-01-29T06:05:01.612Z,0
2023-01-29T06:10:01.652Z,0
2023-01-29T06:15:01.638Z,0
2023-01-29T06:20:01.791Z,0
2023-01-29T06:25:01.802Z,0
2023-01-29T06:30:01.805Z,0
2023-01-29T06:35:01.691Z,0
2023-01-29T06:40:01.658Z,0
2023-01-29T06:45:01.645Z,0
2023-01-29T06:50:02.164Z,0
2023-01-29T06:55:01.812Z,0
2023-01-29T07:00:01.663Z,0
2023-01-29T07:05:01.701Z,0
2023-01-29T07:10:01.748Z,0
2023-01-29T07:15:01.723Z,0
2023-01-29T07:20:01.838Z,0
2023-01-29T07:25:01.886Z,0
2023-01-29T07:30:01.858Z,0
2023-01-29T07:35:01.874Z,0
2023-01-29T07:40:01.891Z,0.33611640211640215
2023-01-29T07:45:01.888Z,0.35776719576719573
2023-01-29T07:50:02.406Z,0.47549206349206347
2023-01-29T07:55:01.867Z,0.553957671957672
2023-01-29T08:00:01.897Z,0.7622962962962964
2023-01-29T08:05:02.083Z,1.347079365079365
2023-01-29T08:10:01.721Z,1.3641693121693124
2023-01-29T08:15:01.767Z,1.462846560846561
2023-01-29T08:20:01.850Z,2.2435449735449735
2023-01-29T08:25:08.081Z,4.885037037037037
2023-01-29T08:30:01.780Z,6.538867724867725
2023-01-29T08:35:01.766Z,10.294486772486772
2023-01-29T08:40:01.865Z,10.735862433862433
2023-01-29T08:45:01.744Z,11.702486772486772
2023-01-29T08:50:02.459Z,15.702063492063493
2023-01-29T08:55:01.826Z,15.690105820105819
2023-01-29T09:00:01.799Z,15.902846560846559
2023-01-29T09:05:01.758Z,12.207936507936509
2023-01-29T09:10:01.803Z,9.590253968253968
2023-01-29T09:15:01.818Z,8.801174603174603
2023-01-29T09:20:01.892Z,10.208486772486774
2023-01-29T09:25:01.835Z,10.715968253968255
2023-01-29T09:30:01.931Z,11.332497354497354
2023-01-29T09:35:01.857Z,11.916253968253969
2023-01-29T09:40:01.863Z,11.605915343915344
2023-01-29T09:45:01.812Z,10.610243386243386
2023-01-29T09:50:02.498Z,10.473121693121694
2023-01-29T09:55:01.891Z,10.789978835978836
2023-01-29T10:00:01.949Z,11.431375661375661
2023-01-29T10:05:01.874Z,9.33437037037037
2023-01-29T10:10:02.045Z,8.59798941798942
2023-01-29T10:15:01.879Z,8.819915343915344
2023-01-29T10:20:01.927Z,10.435714285714287
2023-01-29T10:25:01.915Z,10.47557671957672
2023-01-29T10:30:01.930Z,11.205460317460316
2023-01-29T10:35:01.962Z,9.77994708994709
2023-01-29T10:40:01.880Z,8.413798941798941
2023-01-29T10:45:01.903Z,9.750074074074075
2023-01-29T10:50:02.675Z,10.57352380952381
2023-01-29T10:55:01.889Z,10.89483597883598
2023-01-29T11:00:01.895Z,10.408338624338624
2023-01-29T11:05:01.986Z,11.111587301587303
2023-01-29T11:10:01.929Z,9.081407407407408
2023-01-29T11:15:01.995Z,7.030190476190477
2023-01-29T11:20:01.956Z,6.1912910052910055
2023-01-29T11:25:01.942Z,8.636751322751323
2023-01-29T11:30:02.094Z,10.231597883597884
2023-01-29T11:35:02.020Z,8.93846560846561
2023-01-29T11:40:01.971Z,9.106465608465609
2023-01-29T11:45:01.949Z,6.930560846560846
2023-01-29T11:50:02.361Z,7.668433862433862
2023-01-29T11:55:01.957Z,12.619703703703705
2023-01-29T12:00:02.011Z,9.838359788359789
2023-01-29T12:05:01.960Z,9.712116402116402
2023-01-29T12:10:01.967Z,10.14615873015873
2023-01-29T12:15:01.991Z,8.792931216931217
2023-01-29T12:20:02.066Z,3.7345396825396824
2023-01-29T12:25:02.048Z,3.4195767195767197
2023-01-29T12:30:02.044Z,4.224603174603175
2023-01-29T12:35:02.012Z,4.0160105820105825
2023-01-29T12:40:02.041Z,2.809280423280424
2023-01-29T12:45:01.994Z,1.6676296296296296
2023-01-29T12:50:02.602Z,1.3251851851851852
2023-01-29T12:55:02.019Z,0.9148465608465609
2023-01-29T13:00:02.171Z,1.0620105820105818
2023-01-29T13:05:02.105Z,1.9336719576719577
2023-01-29T13:10:02.288Z,2.681619047619048
2023-01-29T13:15:02.231Z,2.75
2023-01-29T13:20:02.529Z,7.506666666666667
2023-01-29T13:25:05.294Z,8.936296296296296
2023-01-29T13:30:02.228Z,4.167661375661376
2023-01-29T13:35:02.335Z,0.6452380952380953
2023-01-29T13:40:02.369Z,0.26794708994708993
2023-01-29T13:45:02.319Z,0.8141058201058201
2023-01-29T13:50:02.239Z,0.7043703703703704
2023-01-29T13:55:02.314Z,0.5444338624338624
2023-01-29T14:00:02.271Z,0.6477566137566138
2023-01-29T14:05:02.064Z,0.8162539682539682
2023-01-29T14:10:02.041Z,0.4590793650793651
2023-01-29T14:15:02.142Z,0.31086772486772485
2023-01-29T14:20:02.847Z,0.42953439153439155
2023-01-29T14:25:02.059Z,0.7877248677248677
2023-01-29T14:30:02.189Z,0.49877248677248676
2023-01-29T14:35:02.175Z,0.31976719576719576
2023-01-29T14:40:02.093Z,0.3487407407407408
2023-01-29T14:45:02.085Z,0.24263492063492068
2023-01-29T14:50:02.095Z,0.284984126984127
2023-01-29T14:55:02.161Z,0.31757671957671957
2023-01-29T15:00:02.102Z,0.3566243386243386
2023-01-29T15:05:02.084Z,0.331936507936508
2023-01-29T15:10:20.839Z,0.19115343915343916
2023-01-29T15:15:02.140Z,0.17821164021164024
2023-01-29T15:20:02.936Z,0
2023-01-29T15:25:02.146Z,0
2023-01-29T15:30:02.178Z,0
2023-01-29T15:35:02.340Z,0
2023-01-29T15:40:02.266Z,0
2023-01-29T15:45:02.145Z,0
2023-01-29T15:50:02.237Z,0
2023-01-29T15:55:02.267Z,0
2023-01-29T16:00:02.306Z,0
2023-01-29T16:05:02.184Z,0
2023-01-29T16:10:02.173Z,0
2023-01-29T16:15:02.200Z,0
2023-01-29T16:20:02.861Z,0
2023-01-29T16:25:02.188Z,0
2023-01-29T16:30:02.254Z,0
2023-01-29T16:35:02.208Z,0
2023-01-29T16:40:02.341Z,0
2023-01-29T16:45:02.231Z,0
2023-01-29T16:50:02.315Z,0
2023-01-29T16:55:02.326Z,0
2023-01-29T17:00:02.222Z,0
2023-01-29T17:05:02.246Z,0
2023-01-29T17:10:02.244Z,0
2023-01-29T17:15:02.268Z,0
2023-01-29T17:20:02.891Z,0
2023-01-29T17:25:02.251Z,0
2023-01-29T17:30:02.241Z,0
2023-01-29T17:35:02.319Z,0
2023-01-29T17:40:04.304Z,0
2023-01-29T17:45:02.333Z,0
2023-01-29T17:50:02.383Z,0
2023-01-29T17:55:02.245Z,0
2023-01-29T18:00:02.288Z,0
2023-01-29T18:05:02.343Z,0
2023-01-29T18:10:02.283Z,0
2023-01-29T18:15:02.235Z,0
2023-01-29T18:20:03.102Z,0
2023-01-29T18:25:02.274Z,0
2023-01-29T18:30:02.248Z,0
2023-01-29T18:35:02.287Z,0
2023-01-29T18:40:02.309Z,0
2023-01-29T18:45:02.343Z,0
2023-01-29T18:50:02.305Z,0
2023-01-29T18:55:02.408Z,0
2023-01-29T19:00:02.568Z,0
2023-01-29T19:05:02.337Z,0
2023-01-29T19:10:02.300Z,0
2023-01-29T19:15:02.331Z,0
2023-01-29T19:20:03.203Z,0
2023-01-29T19:25:02.296Z,0
2023-01-29T19:30:02.340Z,0
2023-01-29T19:35:02.327Z,0
2023-01-29T19:40:02.356Z,0
2023-01-29T19:45:02.330Z,0
2023-01-29T19:50:02.399Z,0
2023-01-29T19:55:02.427Z,0
2023-01-29T20:00:02.445Z,0
2023-01-29T20:05:02.354Z,0
2023-01-29T20:10:02.350Z,0
2023-01-29T20:15:02.342Z,0
2023-01-29T20:20:02.766Z,0
2023-01-29T20:25:02.359Z,0
2023-01-29T20:30:02.370Z,0
2023-01-29T20:35:02.379Z,0
2023-01-29T20:40:02.386Z,0
2023-01-29T20:45:02.426Z,0
2023-01-29T20:50:02.450Z,0
2023-01-29T20:55:02.475Z,0
2023-01-29T21:00:02.433Z,0
2023-01-29T21:05:02.414Z,0
2023-01-29T21:10:02.496Z,0
2023-01-29T21:15:02.423Z,0
2023-01-29T21:20:03.372Z,0
2023-01-29T21:25:02.405Z,0
2023-01-29T21:30:02.464Z,0
2023-01-29T21:35:02.496Z,0
2023-01-29T21:40:02.449Z,0
2023-01-29T21:45:02.392Z,0
2023-01-29T21:50:02.472Z,0
2023-01-29T21:55:02.538Z,0
2023-01-29T22:00:02.556Z,0
2023-01-29T22:05:16.309Z,0
2023-01-29T22:10:02.465Z,0
2023-01-29T22:15:02.475Z,0
2023-01-29T22:20:03.228Z,0
2023-01-29T22:25:02.528Z,0
2023-01-29T22:30:02.477Z,0
2023-01-29T22:35:02.539Z,0
2023-01-29T22:40:02.481Z,0
2023-01-29T22:45:02.511Z,0
2023-01-29T22:50:02.551Z,0
2023-01-29T22:55:02.556Z,0
2023-01-29T23:00:02.696Z,0
2023-01-29T23:05:02.498Z,0
2023-01-29T23:10:02.573Z,0
2023-01-29T23:15:02.559Z,0
2023-01-29T23:20:02.960Z,0
2023-01-29T23:25:02.545Z,0
2023-01-29T23:30:02.544Z,0
2023-01-29T23:35:02.548Z,0
2023-01-29T23:40:02.658Z,0
2023-01-29T23:45:02.532Z,0
2023-01-29T23:50:02.532Z,0
2023-01-29T23:55:02.586Z,0
